Terminal Aerodrome Forecast
Issued by NWS

Home | Current Version | Previous Version | Graphics & Text | Print | Product List | Glossary On
Versions: 1 2 3 4 5 6 7 8 9 10 11 12
775
FTUS43 KMPX 230520
TAFAXN
TAF
KAXN 230520Z 2306/2406 01008KT P6SM BKN250
     FM230900 03007KT P6SM SCT100 BKN200
     FM231200 05009KT P6SM BKN025
     FM231700 09013KT P6SM SCT030 BKN050
     FM240200 09012KT P6SM BKN100=

USA.gov is the U.S. government's official web portal to all federal, state and local government web resources and services.